Mathilde Maersk — OUJS2 — position and weather

sailwx.info

Track history (hours):
 
Tides and Currents Weather Stations Pressure Air Temp Water Temp Dewpoint Dewpoint Depression Visibility Wind Speed Wind Dir Waves Ship Positions

Mathilde Maersk

Last reported at 2015-Dec-31 04:26 UTC. Time now 2016-Feb-08 06:09 UTC.
Position N 30°36' E 122°56'.
Warning: this ship's position is 39 days out of date.

Length 367 m; draft 12.2 m.

Type: Ship (hazmat cat B). MMSI: 220597990.

Date/timePositionNaut miles runAvg speedWind from/ knotsBaromVisibWave heightAir tempDewpointWater temp
2015-Dec-31 04:26N 30°36' E 122°56'9 9.8
2015-Dec-31 03:33N 30°33' E 122°46'2611.1
2015-Dec-31 01:14N 30°33' E 122°16'1015.2
2015-Dec-31 00:33N 30°36' E 122°05'2 0.1
2015-Dec-30 07:31N 30°38' E 122°03'5 5.4
2015-Dec-30 06:33N 30°35' E 122°08'1211.6
2015-Dec-30 05:33N 30°32' E 122°21'23 7.5
2015-Dec-30 02:31N 30°26' E 122°47'38 5.4
2015-Dec-29 19:33N 29°49' E 122°40'10 8.0
2015-Dec-29 18:17N 29°45' E 122°29'6 8.0
2015-Dec-29 17:33N 29°44' E 122°23'8 7.9
2015-Dec-29 16:33N 29°48' E 122°15'1211.9
2015-Dec-29 15:33N 29°55' E 122°03'1 0.2
2015-Dec-29 09:31N 29°53' E 122°03'0 0.0
2015-Dec-29 02:31N 29°53' E 122°03'0 0.0
2015-Dec-28 23:19N 29°53' E 122°03'0 0.0
2015-Dec-28 19:19N 29°53' E 122°03'0 0.1
2015-Dec-28 18:33N 29°53' E 122°03'6 5.9
2015-Dec-28 17:34N 29°55' E 122°09'1412.8
2015-Dec-28 16:28N 29°45' E 122°20'1314.0
2015-Dec-28 15:31N 29°45' E 122°35'92321.8
2015-Dec-26 21:11N 35°05' E 139°41'913.8
2015-Dec-26 20:34N 35°12' E 139°46'1211.8
2015-Dec-26 19:34N 35°23' E 139°41'1 0.7
2015-Dec-26 18:31N 35°24' E 139°41'0 0.0
2015-Dec-26 17:31N 35°24' E 139°41'0 0.0
2015-Dec-26 16:31N 35°24' E 139°41'0 0.0
2015-Dec-26 15:31N 35°24' E 139°41'0 0.0
2015-Dec-26 14:31N 35°24' E 139°41'0 0.0
2015-Dec-26 13:31N 35°24' E 139°41'0 0.0
2015-Dec-26 12:31N 35°24' E 139°41'0 0.0
2015-Dec-26 11:31N 35°24' E 139°41'0 0.0
2015-Dec-26 10:31N 35°24' E 139°41'0 0.0
2015-Dec-26 09:31N 35°24' E 139°41'0 0.0
2015-Dec-26 08:31N 35°24' E 139°41'0 0.0
2015-Dec-26 07:31N 35°24' E 139°41'0 0.0
2015-Dec-26 06:31N 35°24' E 139°41'0 0.0
2015-Dec-26 05:31N 35°24' E 139°41'0 0.0
2015-Dec-26 04:31N 35°24' E 139°41'0 0.0
2015-Dec-26 03:33N 35°24' E 139°41'4 4.3
2015-Dec-26 02:33N 35°20' E 139°43'1010.0
2015-Dec-26 01:33N 35°11' E 139°46'2015.5
2015-Dec-26 00:16N 34°56' E 139°29'229 5.5
2015-Dec-24 06:32N 34°06' E 134°57'1716.3
2015-Dec-24 05:31N 34°22' E 135°01'1718.1
2015-Dec-24 04:33N 34°35' E 135°15'6 5.7
2015-Dec-24 03:33N 34°41' E 135°16'0 0.0
2015-Dec-24 02:33N 34°41' E 135°16'0 0.0
2015-Dec-24 01:30N 34°41' E 135°16'0 0.0
2015-Dec-24 00:33N 34°41' E 135°16'0 0.0
2015-Dec-23 23:33N 34°41' E 135°16'0 0.0
2015-Dec-23 22:33N 34°41' E 135°16'0 0.0
2015-Dec-23 21:33N 34°41' E 135°16'0 0.0
2015-Dec-23 20:33N 34°41' E 135°16'0 0.0
2015-Dec-23 19:30N 34°41' E 135°16'0 0.0
2015-Dec-23 18:30N 34°41' E 135°16'0 0.0
2015-Dec-23 17:30N 34°41' E 135°16'0 0.0
2015-Dec-23 16:33N 34°41' E 135°16'0 0.0
2015-Dec-23 15:24N 34°41' E 135°16'0 0.1
2015-Dec-23 14:27N 34°41' E 135°16'0 0.0
2015-Dec-23 13:30N 34°41' E 135°16'0 0.0
2015-Dec-23 12:30N 34°41' E 135°16'0 0.0
2015-Dec-23 11:33N 34°41' E 135°16'0 0.0
2015-Dec-23 10:30N 34°41' E 135°16'0 0.1
2015-Dec-23 09:33N 34°41' E 135°16'0 0.0
2015-Dec-23 08:33N 34°41' E 135°16'0 0.0
2015-Dec-23 07:30N 34°41' E 135°16'0 0.0
2015-Dec-23 06:30N 34°41' E 135°16'0 0.0
2015-Dec-23 05:30N 34°41' E 135°16'0 0.0
2015-Dec-23 04:30N 34°41' E 135°16'0 0.0
2015-Dec-23 03:30N 34°41' E 135°16'0 0.0
2015-Dec-23 02:24N 34°41' E 135°16'0 0.0
2015-Dec-23 01:33N 34°41' E 135°16'0 0.0
2015-Dec-23 00:30N 34°41' E 135°16'0 0.0
2015-Dec-22 23:33N 34°41' E 135°16'1 1.5
2015-Dec-22 22:33N 34°39' E 135°16'7 7.3
2015-Dec-22 21:33N 34°32' E 135°13'1514.6
2015-Dec-22 20:33N 34°20' E 135°03'1313.5
2015-Dec-22 19:33N 34°07' E 134°59'1817.9
2015-Dec-22 18:33N 33°50' E 134°55'  
Track history (hours):
 
Tides and Currents Weather Stations Pressure Air Temp Water Temp Dewpoint Dewpoint Depression Visibility Wind Speed Wind Dir Waves Ship Positions

Mathilde Maersk

Last reported at 2015-Dec-31 04:26 UTC. Time now 2016-Feb-08 06:09 UTC.
Position N 30°36' E 122°56'.
Warning: this ship's position is 39 days out of date.

Length 367 m; draft 12.2 m.

Type: Ship (hazmat cat B). MMSI: 220597990.

Date/timePositionNaut miles runAvg speedWind from/ knotsBaromVisibWave heightAir tempDewpointWater temp
2015-Dec-31 04:26N 30°36' E 122°56'9 9.8
2015-Dec-31 03:33N 30°33' E 122°46'2611.1
2015-Dec-31 01:14N 30°33' E 122°16'1015.2
2015-Dec-31 00:33N 30°36' E 122°05'2 0.1
2015-Dec-30 07:31N 30°38' E 122°03'5 5.4
2015-Dec-30 06:33N 30°35' E 122°08'1211.6
2015-Dec-30 05:33N 30°32' E 122°21'23 7.5
2015-Dec-30 02:31N 30°26' E 122°47'38 5.4
2015-Dec-29 19:33N 29°49' E 122°40'10 8.0
2015-Dec-29 18:17N 29°45' E 122°29'6 8.0
2015-Dec-29 17:33N 29°44' E 122°23'8 7.9
2015-Dec-29 16:33N 29°48' E 122°15'1211.9
2015-Dec-29 15:33N 29°55' E 122°03'1 0.2
2015-Dec-29 09:31N 29°53' E 122°03'0 0.0
2015-Dec-29 02:31N 29°53' E 122°03'0 0.0
2015-Dec-28 23:19N 29°53' E 122°03'0 0.0
2015-Dec-28 19:19N 29°53' E 122°03'0 0.1
2015-Dec-28 18:33N 29°53' E 122°03'6 5.9
2015-Dec-28 17:34N 29°55' E 122°09'1412.8
2015-Dec-28 16:28N 29°45' E 122°20'1314.0
2015-Dec-28 15:31N 29°45' E 122°35'92321.8
2015-Dec-26 21:11N 35°05' E 139°41'913.8
2015-Dec-26 20:34N 35°12' E 139°46'1211.8
2015-Dec-26 19:34N 35°23' E 139°41'1 0.7
2015-Dec-26 18:31N 35°24' E 139°41'0 0.0
2015-Dec-26 17:31N 35°24' E 139°41'0 0.0
2015-Dec-26 16:31N 35°24' E 139°41'0 0.0
2015-Dec-26 15:31N 35°24' E 139°41'0 0.0
2015-Dec-26 14:31N 35°24' E 139°41'0 0.0
2015-Dec-26 13:31N 35°24' E 139°41'0 0.0
2015-Dec-26 12:31N 35°24' E 139°41'0 0.0
2015-Dec-26 11:31N 35°24' E 139°41'0 0.0
2015-Dec-26 10:31N 35°24' E 139°41'0 0.0
2015-Dec-26 09:31N 35°24' E 139°41'0 0.0
2015-Dec-26 08:31N 35°24' E 139°41'0 0.0
2015-Dec-26 07:31N 35°24' E 139°41'0 0.0
2015-Dec-26 06:31N 35°24' E 139°41'0 0.0
2015-Dec-26 05:31N 35°24' E 139°41'0 0.0
2015-Dec-26 04:31N 35°24' E 139°41'0 0.0
2015-Dec-26 03:33N 35°24' E 139°41'4 4.3
2015-Dec-26 02:33N 35°20' E 139°43'1010.0
2015-Dec-26 01:33N 35°11' E 139°46'2015.5
2015-Dec-26 00:16N 34°56' E 139°29'229 5.5
2015-Dec-24 06:32N 34°06' E 134°57'1716.3
2015-Dec-24 05:31N 34°22' E 135°01'1718.1
2015-Dec-24 04:33N 34°35' E 135°15'6 5.7
2015-Dec-24 03:33N 34°41' E 135°16'0 0.0
2015-Dec-24 02:33N 34°41' E 135°16'0 0.0
2015-Dec-24 01:30N 34°41' E 135°16'0 0.0
2015-Dec-24 00:33N 34°41' E 135°16'0 0.0
2015-Dec-23 23:33N 34°41' E 135°16'0 0.0
2015-Dec-23 22:33N 34°41' E 135°16'0 0.0
2015-Dec-23 21:33N 34°41' E 135°16'0 0.0
2015-Dec-23 20:33N 34°41' E 135°16'0 0.0
2015-Dec-23 19:30N 34°41' E 135°16'0 0.0
2015-Dec-23 18:30N 34°41' E 135°16'0 0.0
2015-Dec-23 17:30N 34°41' E 135°16'0 0.0
2015-Dec-23 16:33N 34°41' E 135°16'0 0.0
2015-Dec-23 15:24N 34°41' E 135°16'0 0.1
2015-Dec-23 14:27N 34°41' E 135°16'0 0.0
2015-Dec-23 13:30N 34°41' E 135°16'0 0.0
2015-Dec-23 12:30N 34°41' E 135°16'0 0.0
2015-Dec-23 11:33N 34°41' E 135°16'0 0.0
2015-Dec-23 10:30N 34°41' E 135°16'0 0.1
2015-Dec-23 09:33N 34°41' E 135°16'0 0.0
2015-Dec-23 08:33N 34°41' E 135°16'0 0.0
2015-Dec-23 07:30N 34°41' E 135°16'0 0.0
2015-Dec-23 06:30N 34°41' E 135°16'0 0.0
2015-Dec-23 05:30N 34°41' E 135°16'0 0.0
2015-Dec-23 04:30N 34°41' E 135°16'0 0.0
2015-Dec-23 03:30N 34°41' E 135°16'0 0.0
2015-Dec-23 02:24N 34°41' E 135°16'0 0.0
2015-Dec-23 01:33N 34°41' E 135°16'0 0.0
2015-Dec-23 00:30N 34°41' E 135°16'0 0.0
2015-Dec-22 23:33N 34°41' E 135°16'1 1.5
2015-Dec-22 22:33N 34°39' E 135°16'7 7.3
2015-Dec-22 21:33N 34°32' E 135°13'1514.6
2015-Dec-22 20:33N 34°20' E 135°03'1313.5
2015-Dec-22 19:33N 34°07' E 134°59'1817.9
2015-Dec-22 18:33N 33°50' E 134°55'  

Dump ship's entire track history